ROMMA est une association bénévole à but non lucratif. Votre soutien est indispensable : ADHERER à ROMMA ou FAIRE un DON

Engins - (38, Isère)

Vercors (906 m)   Longitude: 05° 37' E   Latitude: 45° 11' N Station partenaire n°139
 

Détail journalier du     <<     >>

Température Precipitation Humidité Vent Dir Rafale Dir. rafale Ensol.
Heure (°C) (mm) (%) (km/h) (km/h) (min)
01:00 10.30829N29NNO0
02:00 9.60864O11O0
03:00 9.70853NO13NNO0
04:00 9.30894NO16NNO0
05:00 8.80.4933N11N0
06:00 8.90.2934N15NNO0
07:00 8.60.2936N16N0
08:00 8.50944NNO13N0
09:00 9.20.2933NNO13NNO0
10:00 10.60922ENE11N5
11:00 12.40853NE19ENE25
12:00 13.20766ENE21NE35
13:00 12.60805ENE21ENE20
14:00 13.40767ENE27ENE50
15:00 13.20747N24NNO15
16:00 13.307410N34NNE25
17:00 13.606913N32N50
18:00 12.207710N26N0
19:00 11.907511N26NNE0
20:00 11.00809N26NNO0
21:00 10.50847N19NNO0
22:00 9.70884N15NNE0
23:00 10.10883SO8NNO0
minuit 10.10872O15NE0

Graphique du 05-10-2019

 

Serveur OMMA